sensor_id;sensor_type;location;lat;lon;timestamp;P1;durP1;ratioP1;P2;durP2;ratioP2
61572;SDS011;47465;43.094;12.434;2024-03-29T00:02:13;15.00;;;2.00;;
61572;SDS011;47465;43.094;12.434;2024-03-29T00:04:40;21.88;;;2.53;;
61572;SDS011;47465;43.094;12.434;2024-03-29T00:07:06;17.40;;;3.28;;
61572;SDS011;47465;43.094;12.434;2024-03-29T00:09:36;11.48;;;2.85;;
61572;SDS011;47465;43.094;12.434;2024-03-29T00:12:02;17.48;;;2.38;;
61572;SDS011;47465;43.094;12.434;2024-03-29T00:14:31;14.27;;;2.42;;
61572;SDS011;47465;43.094;12.434;2024-03-29T00:16:56;20.85;;;3.13;;
61572;SDS011;47465;43.094;12.434;2024-03-29T00:19:23;11.18;;;2.88;;
61572;SDS011;47465;43.094;12.434;2024-03-29T00:21:50;11.50;;;2.15;;
61572;SDS011;47465;43.094;12.434;2024-03-29T00:24:25;18.90;;;3.88;;
61572;SDS011;47465;43.094;12.434;2024-03-29T00:26:51;15.75;;;2.17;;
61572;SDS011;47465;43.094;12.434;2024-03-29T00:29:17;17.23;;;2.20;;
61572;SDS011;47465;43.094;12.434;2024-03-29T00:31:43;13.82;;;2.83;;
61572;SDS011;47465;43.094;12.434;2024-03-29T00:34:10;18.67;;;2.78;;
61572;SDS011;47465;43.094;12.434;2024-03-29T00:36:40;8.48;;;2.10;;
61572;SDS011;47465;43.094;12.434;2024-03-29T00:39:08;16.98;;;2.47;;
61572;SDS011;47465;43.094;12.434;2024-03-29T00:41:36;17.75;;;2.28;;
61572;SDS011;47465;43.094;12.434;2024-03-29T00:44:03;18.35;;;2.38;;
61572;SDS011;47465;43.094;12.434;2024-03-29T00:46:29;13.40;;;2.65;;
61572;SDS011;47465;43.094;12.434;2024-03-29T00:48:55;19.25;;;3.00;;
61572;SDS011;47465;43.094;12.434;2024-03-29T00:51:21;12.82;;;2.38;;
61572;SDS011;47465;43.094;12.434;2024-03-29T00:53:47;16.08;;;3.03;;
61572;SDS011;47465;43.094;12.434;2024-03-29T00:56:15;17.95;;;3.42;;
61572;SDS011;47465;43.094;12.434;2024-03-29T00:58:41;10.35;;;1.85;;
61572;SDS011;47465;43.094;12.434;2024-03-29T01:01:07;13.98;;;2.53;;
61572;SDS011;47465;43.094;12.434;2024-03-29T01:03:33;8.95;;;2.22;;
61572;SDS011;47465;43.094;12.434;2024-03-29T01:06:03;15.57;;;3.50;;
61572;SDS011;47465;43.094;12.434;2024-03-29T01:08:29;20.73;;;2.25;;
61572;SDS011;47465;43.094;12.434;2024-03-29T01:10:55;14.45;;;2.45;;
61572;SDS011;47465;43.094;12.434;2024-03-29T01:13:24;12.32;;;2.65;;
61572;SDS011;47465;43.094;12.434;2024-03-29T01:15:50;19.75;;;2.90;;
61572;SDS011;47465;43.094;12.434;2024-03-29T01:18:17;11.40;;;2.58;;
61572;SDS011;47465;43.094;12.434;2024-03-29T01:20:43;11.65;;;2.40;;
61572;SDS011;47465;43.094;12.434;2024-03-29T01:23:09;15.73;;;3.10;;
61572;SDS011;47465;43.094;12.434;2024-03-29T01:25:35;12.40;;;2.60;;
61572;SDS011;47465;43.094;12.434;2024-03-29T01:28:03;16.67;;;2.40;;
61572;SDS011;47465;43.094;12.434;2024-03-29T01:30:33;11.90;;;2.20;;
61572;SDS011;47465;43.094;12.434;2024-03-29T01:32:59;18.15;;;2.83;;
61572;SDS011;47465;43.094;12.434;2024-03-29T01:35:26;11.18;;;2.05;;
61572;SDS011;47465;43.094;12.434;2024-03-29T01:37:52;24.05;;;2.78;;
61572;SDS011;47465;43.094;12.434;2024-03-29T01:40:19;16.25;;;2.55;;
61572;SDS011;47465;43.094;12.434;2024-03-29T01:42:45;15.20;;;2.47;;
61572;SDS011;47465;43.094;12.434;2024-03-29T01:45:12;12.88;;;2.00;;
61572;SDS011;47465;43.094;12.434;2024-03-29T01:47:39;16.75;;;2.15;;
61572;SDS011;47465;43.094;12.434;2024-03-29T01:50:06;11.65;;;2.35;;
61572;SDS011;47465;43.094;12.434;2024-03-29T01:52:35;12.73;;;2.42;;
61572;SDS011;47465;43.094;12.434;2024-03-29T01:55:01;16.73;;;2.22;;
61572;SDS011;47465;43.094;12.434;2024-03-29T01:57:27;20.45;;;2.47;;
61572;SDS011;47465;43.094;12.434;2024-03-29T01:59:53;8.82;;;1.77;;
61572;SDS011;47465;43.094;12.434;2024-03-29T02:02:20;12.75;;;2.92;;
61572;SDS011;47465;43.094;12.434;2024-03-29T02:04:49;16.95;;;2.40;;
61572;SDS011;47465;43.094;12.434;2024-03-29T02:07:16;13.45;;;2.25;;
61572;SDS011;47465;43.094;12.434;2024-03-29T02:09:44;11.82;;;2.22;;
61572;SDS011;47465;43.094;12.434;2024-03-29T02:12:10;13.10;;;2.35;;
61572;SDS011;47465;43.094;12.434;2024-03-29T02:14:39;18.02;;;2.58;;
61572;SDS011;47465;43.094;12.434;2024-03-29T02:17:06;15.63;;;1.98;;
61572;SDS011;47465;43.094;12.434;2024-03-29T02:19:35;18.65;;;2.50;;
61572;SDS011;47465;43.094;12.434;2024-03-29T02:22:04;11.75;;;2.45;;
61572;SDS011;47465;43.094;12.434;2024-03-29T02:24:34;8.77;;;1.80;;
61572;SDS011;47465;43.094;12.434;2024-03-29T02:27:01;14.27;;;2.65;;
61572;SDS011;47465;43.094;12.434;2024-03-29T02:29:27;11.82;;;2.10;;
61572;SDS011;47465;43.094;12.434;2024-03-29T02:31:55;16.17;;;1.95;;
61572;SDS011;47465;43.094;12.434;2024-03-29T02:34:21;20.83;;;2.58;;
61572;SDS011;47465;43.094;12.434;2024-03-29T02:36:51;24.83;;;3.38;;
61572;SDS011;47465;43.094;12.434;2024-03-29T02:39:26;15.02;;;1.95;;
61572;SDS011;47465;43.094;12.434;2024-03-29T02:41:53;16.75;;;2.70;;
61572;SDS011;47465;43.094;12.434;2024-03-29T02:44:20;13.13;;;1.90;;
61572;SDS011;47465;43.094;12.434;2024-03-29T02:46:46;10.90;;;2.78;;
61572;SDS011;47465;43.094;12.434;2024-03-29T02:49:12;15.38;;;2.42;;
61572;SDS011;47465;43.094;12.434;2024-03-29T02:51:38;7.70;;;1.60;;
61572;SDS011;47465;43.094;12.434;2024-03-29T02:54:04;15.23;;;2.60;;
61572;SDS011;47465;43.094;12.434;2024-03-29T02:56:30;22.73;;;2.42;;
61572;SDS011;47465;43.094;12.434;2024-03-29T02:58:59;18.15;;;1.92;;
61572;SDS011;47465;43.094;12.434;2024-03-29T03:04:08;11.90;;;2.28;;
61572;SDS011;47465;43.094;12.434;2024-03-29T03:06:36;12.18;;;3.10;;
61572;SDS011;47465;43.094;12.434;2024-03-29T03:09:02;13.48;;;2.35;;
61572;SDS011;47465;43.094;12.434;2024-03-29T03:12:01;14.70;;;2.63;;
61572;SDS011;47465;43.094;12.434;2024-03-29T03:14:27;14.35;;;2.05;;
61572;SDS011;47465;43.094;12.434;2024-03-29T03:16:53;11.68;;;2.03;;
61572;SDS011;47465;43.094;12.434;2024-03-29T03:19:20;17.20;;;1.98;;
61572;SDS011;47465;43.094;12.434;2024-03-29T03:21:46;13.75;;;2.60;;
61572;SDS011;47465;43.094;12.434;2024-03-29T03:24:13;16.38;;;2.70;;
61572;SDS011;47465;43.094;12.434;2024-03-29T03:26:39;14.30;;;1.95;;
61572;SDS011;47465;43.094;12.434;2024-03-29T03:29:07;13.38;;;2.45;;
61572;SDS011;47465;43.094;12.434;2024-03-29T03:31:36;9.80;;;2.00;;
61572;SDS011;47465;43.094;12.434;2024-03-29T03:34:02;10.63;;;2.22;;
61572;SDS011;47465;43.094;12.434;2024-03-29T03:36:28;7.70;;;2.33;;
61572;SDS011;47465;43.094;12.434;2024-03-29T03:38:55;11.38;;;2.00;;
61572;SDS011;47465;43.094;12.434;2024-03-29T03:41:21;18.92;;;2.17;;
61572;SDS011;47465;43.094;12.434;2024-03-29T03:43:47;10.90;;;2.00;;
61572;SDS011;47465;43.094;12.434;2024-03-29T03:46:15;13.82;;;1.92;;
61572;SDS011;47465;43.094;12.434;2024-03-29T03:48:41;14.27;;;1.98;;
61572;SDS011;47465;43.094;12.434;2024-03-29T03:51:07;12.93;;;1.92;;
61572;SDS011;47465;43.094;12.434;2024-03-29T03:53:33;14.45;;;2.08;;
61572;SDS011;47465;43.094;12.434;2024-03-29T03:55:59;10.73;;;2.72;;
61572;SDS011;47465;43.094;12.434;2024-03-29T03:58:25;11.07;;;1.83;;
61572;SDS011;47465;43.094;12.434;2024-03-29T04:00:51;12.65;;;1.70;;
61572;SDS011;47465;43.094;12.434;2024-03-29T04:03:18;11.38;;;2.13;;
61572;SDS011;47465;43.094;12.434;2024-03-29T04:05:44;6.50;;;2.17;;
61572;SDS011;47465;43.094;12.434;2024-03-29T04:08:10;14.60;;;3.33;;
61572;SDS011;47465;43.094;12.434;2024-03-29T04:10:37;16.80;;;2.63;;
61572;SDS011;47465;43.094;12.434;2024-03-29T04:13:04;9.85;;;2.08;;
61572;SDS011;47465;43.094;12.434;2024-03-29T04:15:30;14.85;;;2.05;;
61572;SDS011;47465;43.094;12.434;2024-03-29T04:17:59;8.82;;;2.88;;
61572;SDS011;47465;43.094;12.434;2024-03-29T04:20:29;9.95;;;2.67;;
61572;SDS011;47465;43.094;12.434;2024-03-29T04:22:56;12.35;;;2.20;;
61572;SDS011;47465;43.094;12.434;2024-03-29T04:25:22;12.45;;;2.28;;
61572;SDS011;47465;43.094;12.434;2024-03-29T04:27:51;11.52;;;1.92;;
61572;SDS011;47465;43.094;12.434;2024-03-29T04:30:17;3.95;;;1.50;;
61572;SDS011;47465;43.094;12.434;2024-03-29T04:32:43;10.75;;;1.42;;
61572;SDS011;47465;43.094;12.434;2024-03-29T04:35:11;14.60;;;2.35;;
61572;SDS011;47465;43.094;12.434;2024-03-29T04:37:39;11.20;;;1.65;;
61572;SDS011;47465;43.094;12.434;2024-03-29T04:40:05;9.77;;;1.48;;
61572;SDS011;47465;43.094;12.434;2024-03-29T04:45:07;8.73;;;1.63;;
61572;SDS011;47465;43.094;12.434;2024-03-29T04:47:33;15.68;;;1.90;;
61572;SDS011;47465;43.094;12.434;2024-03-29T04:49:59;7.78;;;2.05;;
61572;SDS011;47465;43.094;12.434;2024-03-29T04:52:29;16.05;;;1.65;;
61572;SDS011;47465;43.094;12.434;2024-03-29T04:54:57;20.63;;;2.33;;
61572;SDS011;47465;43.094;12.434;2024-03-29T04:57:33;12.90;;;1.75;;
61572;SDS011;47465;43.094;12.434;2024-03-29T05:00:00;13.30;;;2.17;;
61572;SDS011;47465;43.094;12.434;2024-03-29T05:02:29;17.00;;;2.25;;
61572;SDS011;47465;43.094;12.434;2024-03-29T05:04:55;13.25;;;2.78;;
61572;SDS011;47465;43.094;12.434;2024-03-29T05:07:23;18.98;;;2.35;;
61572;SDS011;47465;43.094;12.434;2024-03-29T05:12:38;21.45;;;2.30;;
61572;SDS011;47465;43.094;12.434;2024-03-29T05:15:05;15.73;;;2.00;;
61572;SDS011;47465;43.094;12.434;2024-03-29T05:17:31;12.55;;;2.67;;
61572;SDS011;47465;43.094;12.434;2024-03-29T05:19:57;12.27;;;2.15;;
61572;SDS011;47465;43.094;12.434;2024-03-29T05:22:23;18.33;;;2.45;;
61572;SDS011;47465;43.094;12.434;2024-03-29T05:24:56;12.80;;;2.45;;
61572;SDS011;47465;43.094;12.434;2024-03-29T05:27:22;12.13;;;2.58;;
61572;SDS011;47465;43.094;12.434;2024-03-29T05:29:50;10.15;;;2.10;;
61572;SDS011;47465;43.094;12.434;2024-03-29T05:32:19;9.07;;;2.53;;
61572;SDS011;47465;43.094;12.434;2024-03-29T05:34:52;17.95;;;2.33;;
61572;SDS011;47465;43.094;12.434;2024-03-29T05:39:48;8.88;;;2.03;;
61572;SDS011;47465;43.094;12.434;2024-03-29T05:42:16;16.92;;;1.88;;
61572;SDS011;47465;43.094;12.434;2024-03-29T05:44:45;18.63;;;1.60;;
61572;SDS011;47465;43.094;12.434;2024-03-29T05:47:16;12.57;;;2.42;;
61572;SDS011;47465;43.094;12.434;2024-03-29T05:49:42;9.00;;;1.73;;
61572;SDS011;47465;43.094;12.434;2024-03-29T05:52:11;10.70;;;2.20;;
61572;SDS011;47465;43.094;12.434;2024-03-29T05:54:46;10.55;;;1.85;;
61572;SDS011;47465;43.094;12.434;2024-03-29T05:57:26;13.93;;;1.95;;
61572;SDS011;47465;43.094;12.434;2024-03-29T06:02:25;13.98;;;2.63;;
61572;SDS011;47465;43.094;12.434;2024-03-29T06:04:54;13.13;;;2.58;;
61572;SDS011;47465;43.094;12.434;2024-03-29T06:07:20;13.93;;;1.98;;
61572;SDS011;47465;43.094;12.434;2024-03-29T06:09:46;9.15;;;1.88;;
61572;SDS011;47465;43.094;12.434;2024-03-29T06:12:12;13.93;;;1.80;;
61572;SDS011;47465;43.094;12.434;2024-03-29T06:14:38;20.40;;;3.97;;
61572;SDS011;47465;43.094;12.434;2024-03-29T06:17:34;12.70;;;2.10;;
61572;SDS011;47465;43.094;12.434;2024-03-29T06:20:02;13.98;;;2.10;;
61572;SDS011;47465;43.094;12.434;2024-03-29T06:22:29;14.93;;;2.95;;
61572;SDS011;47465;43.094;12.434;2024-03-29T06:24:58;12.95;;;2.05;;
61572;SDS011;47465;43.094;12.434;2024-03-29T06:27:24;19.95;;;2.42;;
61572;SDS011;47465;43.094;12.434;2024-03-29T06:29:50;11.77;;;2.17;;
61572;SDS011;47465;43.094;12.434;2024-03-29T06:32:16;13.30;;;2.95;;
61572;SDS011;47465;43.094;12.434;2024-03-29T06:34:54;16.30;;;1.98;;
61572;SDS011;47465;43.094;12.434;2024-03-29T06:37:21;14.55;;;2.00;;
61572;SDS011;47465;43.094;12.434;2024-03-29T06:39:47;19.13;;;1.85;;
61572;SDS011;47465;43.094;12.434;2024-03-29T06:42:14;9.40;;;1.92;;
61572;SDS011;47465;43.094;12.434;2024-03-29T06:50:51;12.60;;;1.55;;
61572;SDS011;47465;43.094;12.434;2024-03-29T06:53:17;12.02;;;1.95;;
61572;SDS011;47465;43.094;12.434;2024-03-29T06:55:49;19.00;;;1.92;;
61572;SDS011;47465;43.094;12.434;2024-03-29T06:58:15;12.98;;;3.20;;
61572;SDS011;47465;43.094;12.434;2024-03-29T07:00:43;10.15;;;1.60;;
61572;SDS011;47465;43.094;12.434;2024-03-29T07:03:10;13.75;;;2.08;;
61572;SDS011;47465;43.094;12.434;2024-03-29T07:05:36;21.00;;;2.55;;
61572;SDS011;47465;43.094;12.434;2024-03-29T07:08:04;13.77;;;2.20;;
61572;SDS011;47465;43.094;12.434;2024-03-29T07:10:30;10.20;;;1.80;;
61572;SDS011;47465;43.094;12.434;2024-03-29T07:12:56;12.63;;;2.35;;
61572;SDS011;47465;43.094;12.434;2024-03-29T07:15:22;7.82;;;1.98;;
61572;SDS011;47465;43.094;12.434;2024-03-29T07:17:49;9.88;;;1.67;;
61572;SDS011;47465;43.094;12.434;2024-03-29T07:20:16;12.35;;;2.08;;
61572;SDS011;47465;43.094;12.434;2024-03-29T07:22:42;13.40;;;1.58;;
61572;SDS011;47465;43.094;12.434;2024-03-29T07:25:10;11.32;;;1.85;;
61572;SDS011;47465;43.094;12.434;2024-03-29T07:27:36;9.93;;;1.35;;
61572;SDS011;47465;43.094;12.434;2024-03-29T07:30:03;8.32;;;1.42;;
61572;SDS011;47465;43.094;12.434;2024-03-29T07:32:33;9.38;;;2.20;;
61572;SDS011;47465;43.094;12.434;2024-03-29T07:34:59;10.27;;;1.30;;
61572;SDS011;47465;43.094;12.434;2024-03-29T07:37:30;21.25;;;1.75;;
61572;SDS011;47465;43.094;12.434;2024-03-29T07:40:00;11.30;;;1.42;;
61572;SDS011;47465;43.094;12.434;2024-03-29T07:45:06;17.33;;;2.58;;
61572;SDS011;47465;43.094;12.434;2024-03-29T07:47:33;12.38;;;1.73;;
61572;SDS011;47465;43.094;12.434;2024-03-29T07:50:00;15.73;;;2.22;;
61572;SDS011;47465;43.094;12.434;2024-03-29T07:52:26;13.27;;;2.15;;
61572;SDS011;47465;43.094;12.434;2024-03-29T07:54:54;11.85;;;2.92;;
61572;SDS011;47465;43.094;12.434;2024-03-29T07:57:24;13.98;;;2.67;;
61572;SDS011;47465;43.094;12.434;2024-03-29T07:59:51;13.82;;;2.05;;
61572;SDS011;47465;43.094;12.434;2024-03-29T08:02:18;12.13;;;2.47;;
61572;SDS011;47465;43.094;12.434;2024-03-29T08:04:44;11.13;;;2.33;;
61572;SDS011;47465;43.094;12.434;2024-03-29T08:07:13;20.50;;;2.47;;
61572;SDS011;47465;43.094;12.434;2024-03-29T08:09:39;16.85;;;2.53;;
61572;SDS011;47465;43.094;12.434;2024-03-29T08:12:05;12.68;;;2.42;;
61572;SDS011;47465;43.094;12.434;2024-03-29T08:14:37;9.13;;;2.00;;
61572;SDS011;47465;43.094;12.434;2024-03-29T08:17:18;18.08;;;2.40;;
61572;SDS011;47465;43.094;12.434;2024-03-29T08:19:44;13.43;;;2.08;;
61572;SDS011;47465;43.094;12.434;2024-03-29T08:22:10;11.27;;;3.15;;
61572;SDS011;47465;43.094;12.434;2024-03-29T08:24:36;10.35;;;1.63;;
61572;SDS011;47465;43.094;12.434;2024-03-29T08:27:02;14.98;;;2.45;;
61572;SDS011;47465;43.094;12.434;2024-03-29T08:29:29;14.18;;;1.95;;
61572;SDS011;47465;43.094;12.434;2024-03-29T08:31:55;11.25;;;2.17;;
61572;SDS011;47465;43.094;12.434;2024-03-29T08:34:22;11.55;;;2.05;;
61572;SDS011;47465;43.094;12.434;2024-03-29T08:36:53;9.35;;;2.15;;
61572;SDS011;47465;43.094;12.434;2024-03-29T08:39:21;13.70;;;2.22;;
61572;SDS011;47465;43.094;12.434;2024-03-29T08:41:47;11.48;;;1.35;;
61572;SDS011;47465;43.094;12.434;2024-03-29T08:44:16;7.88;;;1.65;;
61572;SDS011;47465;43.094;12.434;2024-03-29T08:46:42;18.67;;;2.30;;
61572;SDS011;47465;43.094;12.434;2024-03-29T08:49:12;9.50;;;1.88;;
61572;SDS011;47465;43.094;12.434;2024-03-29T08:51:39;5.65;;;1.33;;
61572;SDS011;47465;43.094;12.434;2024-03-29T08:54:09;16.25;;;2.40;;
61572;SDS011;47465;43.094;12.434;2024-03-29T08:56:35;13.02;;;2.03;;
61572;SDS011;47465;43.094;12.434;2024-03-29T08:59:02;7.05;;;1.70;;
61572;SDS011;47465;43.094;12.434;2024-03-29T09:01:32;7.97;;;1.75;;
61572;SDS011;47465;43.094;12.434;2024-03-29T09:03:58;13.43;;;1.98;;
61572;SDS011;47465;43.094;12.434;2024-03-29T09:06:24;14.68;;;2.17;;
61572;SDS011;47465;43.094;12.434;2024-03-29T09:08:52;9.45;;;1.63;;
61572;SDS011;47465;43.094;12.434;2024-03-29T09:11:18;13.35;;;2.75;;
61572;SDS011;47465;43.094;12.434;2024-03-29T09:13:44;9.38;;;1.73;;
61572;SDS011;47465;43.094;12.434;2024-03-29T09:16:10;8.40;;;1.15;;
61572;SDS011;47465;43.094;12.434;2024-03-29T09:18:37;10.43;;;2.20;;
61572;SDS011;47465;43.094;12.434;2024-03-29T09:21:03;12.35;;;1.95;;
61572;SDS011;47465;43.094;12.434;2024-03-29T09:23:29;7.68;;;1.52;;
61572;SDS011;47465;43.094;12.434;2024-03-29T09:25:57;9.65;;;1.52;;
61572;SDS011;47465;43.094;12.434;2024-03-29T09:28:23;11.05;;;1.45;;
61572;SDS011;47465;43.094;12.434;2024-03-29T09:30:49;9.65;;;2.08;;
61572;SDS011;47465;43.094;12.434;2024-03-29T09:33:15;10.90;;;1.52;;
61572;SDS011;47465;43.094;12.434;2024-03-29T09:35:41;9.60;;;2.13;;
61572;SDS011;47465;43.094;12.434;2024-03-29T09:38:09;11.40;;;2.00;;
61572;SDS011;47465;43.094;12.434;2024-03-29T09:40:34;10.18;;;1.90;;
61572;SDS011;47465;43.094;12.434;2024-03-29T09:43:03;6.97;;;1.90;;
61572;SDS011;47465;43.094;12.434;2024-03-29T09:45:30;9.85;;;1.50;;
61572;SDS011;47465;43.094;12.434;2024-03-29T09:48:00;11.32;;;1.35;;
61572;SDS011;47465;43.094;12.434;2024-03-29T09:50:28;8.25;;;1.00;;
61572;SDS011;47465;43.094;12.434;2024-03-29T09:52:55;17.40;;;2.15;;
61572;SDS011;47465;43.094;12.434;2024-03-29T09:55:26;13.18;;;1.95;;
61572;SDS011;47465;43.094;12.434;2024-03-29T09:57:53;13.55;;;1.83;;
61572;SDS011;47465;43.094;12.434;2024-03-29T10:00:21;8.38;;;1.65;;
61572;SDS011;47465;43.094;12.434;2024-03-29T10:02:48;9.27;;;2.20;;
61572;SDS011;47465;43.094;12.434;2024-03-29T10:05:15;17.13;;;2.15;;
61572;SDS011;47465;43.094;12.434;2024-03-29T10:07:42;17.30;;;3.30;;
61572;SDS011;47465;43.094;12.434;2024-03-29T10:10:13;11.38;;;2.42;;
61572;SDS011;47465;43.094;12.434;2024-03-29T10:12:39;17.98;;;2.33;;
61572;SDS011;47465;43.094;12.434;2024-03-29T10:15:30;16.80;;;2.08;;
61572;SDS011;47465;43.094;12.434;2024-03-29T10:18:02;11.93;;;2.33;;
61572;SDS011;47465;43.094;12.434;2024-03-29T10:20:34;18.70;;;1.90;;
61572;SDS011;47465;43.094;12.434;2024-03-29T10:23:01;12.60;;;2.13;;
61572;SDS011;47465;43.094;12.434;2024-03-29T10:25:31;14.80;;;2.50;;
61572;SDS011;47465;43.094;12.434;2024-03-29T10:28:03;13.65;;;2.13;;
61572;SDS011;47465;43.094;12.434;2024-03-29T10:30:31;15.07;;;2.35;;
61572;SDS011;47465;43.094;12.434;2024-03-29T10:32:57;17.02;;;2.88;;
61572;SDS011;47465;43.094;12.434;2024-03-29T10:35:24;22.27;;;2.50;;
61572;SDS011;47465;43.094;12.434;2024-03-29T10:37:51;15.35;;;2.85;;
61572;SDS011;47465;43.094;12.434;2024-03-29T10:40:26;11.68;;;2.22;;
61572;SDS011;47465;43.094;12.434;2024-03-29T10:42:54;18.27;;;3.38;;
61572;SDS011;47465;43.094;12.434;2024-03-29T10:45:47;15.45;;;2.03;;
61572;SDS011;47465;43.094;12.434;2024-03-29T10:48:16;13.88;;;2.13;;
61572;SDS011;47465;43.094;12.434;2024-03-29T10:50:43;17.88;;;2.88;;
61572;SDS011;47465;43.094;12.434;2024-03-29T10:53:11;12.02;;;1.80;;
61572;SDS011;47465;43.094;12.434;2024-03-29T10:55:41;12.65;;;2.92;;
61572;SDS011;47465;43.094;12.434;2024-03-29T10:58:10;20.63;;;2.95;;
61572;SDS011;47465;43.094;12.434;2024-03-29T11:00:37;18.48;;;2.80;;
61572;SDS011;47465;43.094;12.434;2024-03-29T11:03:13;17.80;;;1.60;;
61572;SDS011;47465;43.094;12.434;2024-03-29T11:05:44;26.75;;;2.13;;
61572;SDS011;47465;43.094;12.434;2024-03-29T11:08:12;19.95;;;2.60;;
61572;SDS011;47465;43.094;12.434;2024-03-29T11:10:44;18.60;;;2.42;;
61572;SDS011;47465;43.094;12.434;2024-03-29T11:13:19;22.75;;;2.97;;
61572;SDS011;47465;43.094;12.434;2024-03-29T11:15:59;15.10;;;1.98;;
61572;SDS011;47465;43.094;12.434;2024-03-29T11:18:31;23.27;;;2.45;;
61572;SDS011;47465;43.094;12.434;2024-03-29T11:20:58;23.10;;;2.55;;
61572;SDS011;47465;43.094;12.434;2024-03-29T11:23:35;18.35;;;3.17;;
61572;SDS011;47465;43.094;12.434;2024-03-29T11:26:08;16.92;;;2.38;;
61572;SDS011;47465;43.094;12.434;2024-03-29T11:28:58;19.48;;;2.28;;
61572;SDS011;47465;43.094;12.434;2024-03-29T11:31:26;22.92;;;3.00;;
61572;SDS011;47465;43.094;12.434;2024-03-29T11:33:56;19.30;;;3.15;;
61572;SDS011;47465;43.094;12.434;2024-03-29T11:36:23;19.67;;;2.90;;
61572;SDS011;47465;43.094;12.434;2024-03-29T11:38:55;19.55;;;2.45;;
61572;SDS011;47465;43.094;12.434;2024-03-29T11:41:22;15.20;;;2.85;;
61572;SDS011;47465;43.094;12.434;2024-03-29T11:44:01;14.77;;;2.95;;
61572;SDS011;47465;43.094;12.434;2024-03-29T11:46:29;18.15;;;3.92;;
61572;SDS011;47465;43.094;12.434;2024-03-29T11:49:05;23.35;;;3.80;;
61572;SDS011;47465;43.094;12.434;2024-03-29T11:51:34;16.13;;;2.42;;
61572;SDS011;47465;43.094;12.434;2024-03-29T11:54:00;22.27;;;3.58;;
61572;SDS011;47465;43.094;12.434;2024-03-29T11:56:28;26.35;;;3.70;;
61572;SDS011;47465;43.094;12.434;2024-03-29T11:58:54;36.65;;;4.00;;
61572;SDS011;47465;43.094;12.434;2024-03-29T12:01:25;26.83;;;3.58;;
61572;SDS011;47465;43.094;12.434;2024-03-29T12:03:55;26.80;;;3.33;;
61572;SDS011;47465;43.094;12.434;2024-03-29T12:06:35;40.15;;;4.85;;
61572;SDS011;47465;43.094;12.434;2024-03-29T12:09:02;24.77;;;3.67;;
61572;SDS011;47465;43.094;12.434;2024-03-29T12:11:29;35.58;;;3.95;;
61572;SDS011;47465;43.094;12.434;2024-03-29T12:14:02;23.25;;;4.15;;
61572;SDS011;47465;43.094;12.434;2024-03-29T12:16:30;18.08;;;2.97;;
61572;SDS011;47465;43.094;12.434;2024-03-29T12:19:07;22.92;;;3.17;;
61572;SDS011;47465;43.094;12.434;2024-03-29T12:21:36;25.38;;;4.35;;
61572;SDS011;47465;43.094;12.434;2024-03-29T12:24:05;22.55;;;4.28;;
61572;SDS011;47465;43.094;12.434;2024-03-29T12:26:43;26.00;;;4.88;;
61572;SDS011;47465;43.094;12.434;2024-03-29T12:29:13;23.85;;;2.90;;
61572;SDS011;47465;43.094;12.434;2024-03-29T12:35:13;27.60;;;3.95;;
61572;SDS011;47465;43.094;12.434;2024-03-29T12:37:51;32.65;;;5.55;;
61572;SDS011;47465;43.094;12.434;2024-03-29T12:40:28;27.02;;;5.00;;
61572;SDS011;47465;43.094;12.434;2024-03-29T12:43:05;16.98;;;4.05;;
61572;SDS011;47465;43.094;12.434;2024-03-29T12:45:33;21.85;;;3.35;;
61572;SDS011;47465;43.094;12.434;2024-03-29T12:48:01;22.67;;;4.55;;
61572;SDS011;47465;43.094;12.434;2024-03-29T12:50:31;21.63;;;3.72;;
61572;SDS011;47465;43.094;12.434;2024-03-29T12:53:07;35.28;;;5.03;;
61572;SDS011;47465;43.094;12.434;2024-03-29T12:55:34;28.80;;;5.70;;
61572;SDS011;47465;43.094;12.434;2024-03-29T12:58:01;32.50;;;3.72;;
61572;SDS011;47465;43.094;12.434;2024-03-29T13:00:30;29.55;;;4.68;;
61572;SDS011;47465;43.094;12.434;2024-03-29T13:03:06;29.15;;;6.30;;
61572;SDS011;47465;43.094;12.434;2024-03-29T13:08:28;33.60;;;5.47;;
61572;SDS011;47465;43.094;12.434;2024-03-29T13:10:54;45.50;;;6.07;;
61572;SDS011;47465;43.094;12.434;2024-03-29T13:13:20;27.88;;;4.60;;
61572;SDS011;47465;43.094;12.434;2024-03-29T13:15:47;36.30;;;5.25;;
61572;SDS011;47465;43.094;12.434;2024-03-29T13:18:16;40.70;;;5.28;;
61572;SDS011;47465;43.094;12.434;2024-03-29T13:20:43;32.70;;;6.00;;
61572;SDS011;47465;43.094;12.434;2024-03-29T13:23:09;35.63;;;5.15;;
61572;SDS011;47465;43.094;12.434;2024-03-29T13:25:38;37.67;;;5.50;;
61572;SDS011;47465;43.094;12.434;2024-03-29T13:28:06;32.92;;;4.32;;
61572;SDS011;47465;43.094;12.434;2024-03-29T13:30:32;29.38;;;4.82;;
61572;SDS011;47465;43.094;12.434;2024-03-29T13:32:58;47.55;;;6.32;;
61572;SDS011;47465;43.094;12.434;2024-03-29T13:35:25;25.50;;;4.57;;
61572;SDS011;47465;43.094;12.434;2024-03-29T13:37:51;37.33;;;5.30;;
61572;SDS011;47465;43.094;12.434;2024-03-29T13:40:20;41.83;;;4.63;;
61572;SDS011;47465;43.094;12.434;2024-03-29T13:42:51;37.22;;;4.40;;
61572;SDS011;47465;43.094;12.434;2024-03-29T13:45:17;43.30;;;6.45;;
61572;SDS011;47465;43.094;12.434;2024-03-29T13:47:44;36.17;;;4.68;;
61572;SDS011;47465;43.094;12.434;2024-03-29T13:50:12;57.53;;;5.57;;
61572;SDS011;47465;43.094;12.434;2024-03-29T13:52:40;61.40;;;6.28;;
61572;SDS011;47465;43.094;12.434;2024-03-29T13:55:07;40.35;;;5.97;;
61572;SDS011;47465;43.094;12.434;2024-03-29T13:57:34;38.35;;;5.00;;
61572;SDS011;47465;43.094;12.434;2024-03-29T14:00:09;55.95;;;6.22;;
61572;SDS011;47465;43.094;12.434;2024-03-29T14:02:50;45.33;;;4.70;;
61572;SDS011;47465;43.094;12.434;2024-03-29T14:05:20;51.38;;;6.25;;
61572;SDS011;47465;43.094;12.434;2024-03-29T14:07:51;32.30;;;4.85;;
61572;SDS011;47465;43.094;12.434;2024-03-29T14:10:23;50.30;;;6.50;;
61572;SDS011;47465;43.094;12.434;2024-03-29T14:12:50;39.45;;;4.80;;
61572;SDS011;47465;43.094;12.434;2024-03-29T14:15:22;47.40;;;8.23;;
61572;SDS011;47465;43.094;12.434;2024-03-29T14:17:49;43.42;;;5.43;;
61572;SDS011;47465;43.094;12.434;2024-03-29T14:20:17;59.22;;;6.40;;
61572;SDS011;47465;43.094;12.434;2024-03-29T14:22:43;49.55;;;5.25;;
61572;SDS011;47465;43.094;12.434;2024-03-29T14:25:10;46.58;;;5.93;;
61572;SDS011;47465;43.094;12.434;2024-03-29T14:27:39;41.00;;;5.38;;
61572;SDS011;47465;43.094;12.434;2024-03-29T14:30:13;47.58;;;5.95;;
61572;SDS011;47465;43.094;12.434;2024-03-29T14:32:46;51.45;;;6.57;;
61572;SDS011;47465;43.094;12.434;2024-03-29T14:35:13;39.22;;;6.28;;
61572;SDS011;47465;43.094;12.434;2024-03-29T14:37:41;33.95;;;5.85;;
61572;SDS011;47465;43.094;12.434;2024-03-29T14:42:51;42.08;;;5.28;;
61572;SDS011;47465;43.094;12.434;2024-03-29T14:45:19;50.28;;;5.93;;
61572;SDS011;47465;43.094;12.434;2024-03-29T14:47:47;42.80;;;4.95;;
61572;SDS011;47465;43.094;12.434;2024-03-29T14:50:25;40.97;;;5.43;;
61572;SDS011;47465;43.094;12.434;2024-03-29T14:52:53;50.67;;;6.03;;
61572;SDS011;47465;43.094;12.434;2024-03-29T14:55:38;40.78;;;5.78;;
61572;SDS011;47465;43.094;12.434;2024-03-29T14:58:09;37.60;;;5.35;;
61572;SDS011;47465;43.094;12.434;2024-03-29T15:03:27;50.05;;;7.53;;
61572;SDS011;47465;43.094;12.434;2024-03-29T15:06:16;33.92;;;5.18;;